sensor_id;sensor_type;location;lat;lon;timestamp;P1;durP1;ratioP1;P2;durP2;ratioP2
14306;SDS011;7237;49.500;11.400;2023-03-17T00:00:54;1.57;;;1.27;;
14306;SDS011;7237;49.500;11.400;2023-03-17T00:03:22;1.87;;;1.37;;
14306;SDS011;7237;49.500;11.400;2023-03-17T00:05:50;1.60;;;1.30;;
14306;SDS011;7237;49.500;11.400;2023-03-17T00:08:19;1.27;;;1.10;;
14306;SDS011;7237;49.500;11.400;2023-03-17T00:10:48;1.17;;;1.07;;
14306;SDS011;7237;49.500;11.400;2023-03-17T00:13:16;1.57;;;1.17;;
14306;SDS011;7237;49.500;11.400;2023-03-17T00:15:43;3.10;;;1.10;;
14306;SDS011;7237;49.500;11.400;2023-03-17T00:18:10;1.50;;;1.17;;
14306;SDS011;7237;49.500;11.400;2023-03-17T00:20:39;1.30;;;1.20;;
14306;SDS011;7237;49.500;11.400;2023-03-17T00:23:07;1.37;;;1.10;;
14306;SDS011;7237;49.500;11.400;2023-03-17T00:25:38;1.33;;;1.20;;
14306;SDS011;7237;49.500;11.400;2023-03-17T00:28:10;1.47;;;1.20;;
14306;SDS011;7237;49.500;11.400;2023-03-17T00:30:39;2.50;;;1.30;;
14306;SDS011;7237;49.500;11.400;2023-03-17T00:33:06;1.60;;;1.40;;
14306;SDS011;7237;49.500;11.400;2023-03-17T00:35:33;2.40;;;1.40;;
14306;SDS011;7237;49.500;11.400;2023-03-17T00:38:00;1.10;;;1.00;;
14306;SDS011;7237;49.500;11.400;2023-03-17T00:40:28;2.10;;;1.40;;
14306;SDS011;7237;49.500;11.400;2023-03-17T00:42:57;1.40;;;1.13;;
14306;SDS011;7237;49.500;11.400;2023-03-17T00:45:26;1.70;;;1.27;;
14306;SDS011;7237;49.500;11.400;2023-03-17T00:47:53;3.67;;;1.80;;
14306;SDS011;7237;49.500;11.400;2023-03-17T00:50:21;1.43;;;1.13;;
14306;SDS011;7237;49.500;11.400;2023-03-17T00:52:50;2.37;;;1.10;;
14306;SDS011;7237;49.500;11.400;2023-03-17T00:55:17;2.70;;;1.47;;
14306;SDS011;7237;49.500;11.400;2023-03-17T00:57:46;2.03;;;1.20;;
14306;SDS011;7237;49.500;11.400;2023-03-17T01:00:18;1.47;;;1.37;;
14306;SDS011;7237;49.500;11.400;2023-03-17T01:02:48;1.43;;;1.30;;
14306;SDS011;7237;49.500;11.400;2023-03-17T01:05:15;1.57;;;1.40;;
14306;SDS011;7237;49.500;11.400;2023-03-17T01:07:43;2.60;;;1.50;;
14306;SDS011;7237;49.500;11.400;2023-03-17T01:10:17;2.40;;;1.50;;
14306;SDS011;7237;49.500;11.400;2023-03-17T01:12:44;1.77;;;1.30;;
14306;SDS011;7237;49.500;11.400;2023-03-17T01:15:12;1.37;;;1.20;;
14306;SDS011;7237;49.500;11.400;2023-03-17T01:17:39;2.13;;;1.60;;
14306;SDS011;7237;49.500;11.400;2023-03-17T01:20:10;3.73;;;1.60;;
14306;SDS011;7237;49.500;11.400;2023-03-17T01:22:41;1.10;;;1.00;;
14306;SDS011;7237;49.500;11.400;2023-03-17T01:25:08;3.93;;;1.70;;
14306;SDS011;7237;49.500;11.400;2023-03-17T01:27:36;1.67;;;1.30;;
14306;SDS011;7237;49.500;11.400;2023-03-17T01:30:03;2.60;;;1.50;;
14306;SDS011;7237;49.500;11.400;2023-03-17T01:32:30;1.80;;;1.20;;
14306;SDS011;7237;49.500;11.400;2023-03-17T01:34:57;1.10;;;1.10;;
14306;SDS011;7237;49.500;11.400;2023-03-17T01:37:26;1.33;;;1.23;;
14306;SDS011;7237;49.500;11.400;2023-03-17T01:39:53;1.90;;;1.40;;
14306;SDS011;7237;49.500;11.400;2023-03-17T01:42:20;1.10;;;1.10;;
14306;SDS011;7237;49.500;11.400;2023-03-17T01:45:00;2.17;;;1.40;;
14306;SDS011;7237;49.500;11.400;2023-03-17T01:47:27;1.37;;;1.20;;
14306;SDS011;7237;49.500;11.400;2023-03-17T01:49:56;1.13;;;1.07;;
14306;SDS011;7237;49.500;11.400;2023-03-17T01:52:25;2.20;;;1.37;;
14306;SDS011;7237;49.500;11.400;2023-03-17T01:54:53;2.63;;;1.53;;
14306;SDS011;7237;49.500;11.400;2023-03-17T01:57:23;2.07;;;1.43;;
14306;SDS011;7237;49.500;11.400;2023-03-17T01:59:53;1.40;;;1.30;;
14306;SDS011;7237;49.500;11.400;2023-03-17T02:02:23;1.47;;;1.23;;
14306;SDS011;7237;49.500;11.400;2023-03-17T02:04:51;1.77;;;1.37;;
14306;SDS011;7237;49.500;11.400;2023-03-17T02:07:18;2.23;;;1.40;;
14306;SDS011;7237;49.500;11.400;2023-03-17T02:09:47;1.30;;;1.20;;
14306;SDS011;7237;49.500;11.400;2023-03-17T02:12:15;2.10;;;1.30;;
14306;SDS011;7237;49.500;11.400;2023-03-17T02:14:42;1.43;;;1.30;;
14306;SDS011;7237;49.500;11.400;2023-03-17T02:17:10;1.30;;;1.20;;
14306;SDS011;7237;49.500;11.400;2023-03-17T02:19:38;1.40;;;1.30;;
14306;SDS011;7237;49.500;11.400;2023-03-17T02:22:07;1.37;;;1.03;;
14306;SDS011;7237;49.500;11.400;2023-03-17T02:24:35;1.50;;;1.40;;
14306;SDS011;7237;49.500;11.400;2023-03-17T02:27:04;1.77;;;1.30;;
14306;SDS011;7237;49.500;11.400;2023-03-17T02:29:33;2.27;;;1.37;;
14306;SDS011;7237;49.500;11.400;2023-03-17T02:32:01;1.37;;;1.27;;
14306;SDS011;7237;49.500;11.400;2023-03-17T02:34:29;1.63;;;1.30;;
14306;SDS011;7237;49.500;11.400;2023-03-17T02:36:56;2.23;;;1.40;;
14306;SDS011;7237;49.500;11.400;2023-03-17T02:39:25;2.23;;;1.40;;
14306;SDS011;7237;49.500;11.400;2023-03-17T02:41:52;2.03;;;1.33;;
14306;SDS011;7237;49.500;11.400;2023-03-17T02:44:19;1.20;;;1.10;;
14306;SDS011;7237;49.500;11.400;2023-03-17T02:46:47;1.93;;;1.40;;
14306;SDS011;7237;49.500;11.400;2023-03-17T02:49:14;2.10;;;1.30;;
14306;SDS011;7237;49.500;11.400;2023-03-17T02:51:41;1.50;;;1.40;;
14306;SDS011;7237;49.500;11.400;2023-03-17T02:54:09;2.23;;;1.17;;
14306;SDS011;7237;49.500;11.400;2023-03-17T02:56:37;1.00;;;1.00;;
14306;SDS011;7237;49.500;11.400;2023-03-17T02:59:04;1.83;;;1.40;;
14306;SDS011;7237;49.500;11.400;2023-03-17T03:01:32;2.03;;;1.70;;
14306;SDS011;7237;49.500;11.400;2023-03-17T03:03:59;2.87;;;1.30;;
14306;SDS011;7237;49.500;11.400;2023-03-17T03:06:27;1.50;;;1.30;;
14306;SDS011;7237;49.500;11.400;2023-03-17T03:08:55;1.87;;;1.20;;
14306;SDS011;7237;49.500;11.400;2023-03-17T03:11:22;1.00;;;0.90;;
14306;SDS011;7237;49.500;11.400;2023-03-17T03:13:51;1.73;;;1.13;;
14306;SDS011;7237;49.500;11.400;2023-03-17T03:16:18;4.30;;;1.50;;
14306;SDS011;7237;49.500;11.400;2023-03-17T03:18:45;3.23;;;1.37;;
14306;SDS011;7237;49.500;11.400;2023-03-17T03:21:12;1.43;;;1.10;;
14306;SDS011;7237;49.500;11.400;2023-03-17T03:23:40;2.70;;;1.67;;
14306;SDS011;7237;49.500;11.400;2023-03-17T03:26:07;1.87;;;1.33;;
14306;SDS011;7237;49.500;11.400;2023-03-17T03:28:34;1.20;;;1.10;;
14306;SDS011;7237;49.500;11.400;2023-03-17T03:31:02;2.23;;;1.30;;
14306;SDS011;7237;49.500;11.400;2023-03-17T03:33:29;2.20;;;1.47;;
14306;SDS011;7237;49.500;11.400;2023-03-17T03:35:57;1.27;;;1.17;;
14306;SDS011;7237;49.500;11.400;2023-03-17T03:38:24;1.93;;;1.20;;
14306;SDS011;7237;49.500;11.400;2023-03-17T03:40:51;1.93;;;1.10;;
14306;SDS011;7237;49.500;11.400;2023-03-17T03:43:18;1.23;;;1.10;;
14306;SDS011;7237;49.500;11.400;2023-03-17T03:45:46;1.30;;;1.10;;
14306;SDS011;7237;49.500;11.400;2023-03-17T03:48:14;1.33;;;1.20;;
14306;SDS011;7237;49.500;11.400;2023-03-17T03:50:41;1.50;;;1.40;;
14306;SDS011;7237;49.500;11.400;2023-03-17T03:53:08;1.43;;;0.93;;
14306;SDS011;7237;49.500;11.400;2023-03-17T03:55:35;1.63;;;1.17;;
14306;SDS011;7237;49.500;11.400;2023-03-17T03:58:02;3.23;;;1.37;;
14306;SDS011;7237;49.500;11.400;2023-03-17T04:00:29;1.80;;;1.20;;
14306;SDS011;7237;49.500;11.400;2023-03-17T04:02:56;2.10;;;1.50;;
14306;SDS011;7237;49.500;11.400;2023-03-17T04:05:25;2.03;;;1.30;;
14306;SDS011;7237;49.500;11.400;2023-03-17T04:07:52;1.00;;;1.00;;
14306;SDS011;7237;49.500;11.400;2023-03-17T04:10:19;1.57;;;1.40;;
14306;SDS011;7237;49.500;11.400;2023-03-17T04:12:47;1.30;;;1.20;;
14306;SDS011;7237;49.500;11.400;2023-03-17T04:15:15;1.40;;;1.17;;
14306;SDS011;7237;49.500;11.400;2023-03-17T04:17:42;1.77;;;1.33;;
14306;SDS011;7237;49.500;11.400;2023-03-17T04:20:09;1.70;;;1.20;;
14306;SDS011;7237;49.500;11.400;2023-03-17T04:22:38;1.97;;;1.30;;
14306;SDS011;7237;49.500;11.400;2023-03-17T04:25:06;1.43;;;1.23;;
14306;SDS011;7237;49.500;11.400;2023-03-17T04:27:33;1.03;;;0.97;;
14306;SDS011;7237;49.500;11.400;2023-03-17T04:30:00;1.33;;;0.97;;
14306;SDS011;7237;49.500;11.400;2023-03-17T04:32:28;1.37;;;1.27;;
14306;SDS011;7237;49.500;11.400;2023-03-17T04:34:55;1.47;;;1.37;;
14306;SDS011;7237;49.500;11.400;2023-03-17T04:37:22;1.30;;;1.20;;
14306;SDS011;7237;49.500;11.400;2023-03-17T04:39:51;1.23;;;1.13;;
14306;SDS011;7237;49.500;11.400;2023-03-17T04:42:19;1.77;;;1.40;;
14306;SDS011;7237;49.500;11.400;2023-03-17T04:44:46;1.63;;;0.90;;
14306;SDS011;7237;49.500;11.400;2023-03-17T04:47:13;5.43;;;1.40;;
14306;SDS011;7237;49.500;11.400;2023-03-17T04:49:40;1.30;;;1.17;;
14306;SDS011;7237;49.500;11.400;2023-03-17T04:52:07;1.73;;;1.30;;
14306;SDS011;7237;49.500;11.400;2023-03-17T04:54:35;2.07;;;1.10;;
14306;SDS011;7237;49.500;11.400;2023-03-17T04:57:03;3.03;;;1.30;;
14306;SDS011;7237;49.500;11.400;2023-03-17T04:59:30;2.30;;;1.40;;
14306;SDS011;7237;49.500;11.400;2023-03-17T05:01:57;1.80;;;1.23;;
14306;SDS011;7237;49.500;11.400;2023-03-17T05:04:25;1.40;;;1.30;;
14306;SDS011;7237;49.500;11.400;2023-03-17T05:06:52;4.03;;;1.20;;
14306;SDS011;7237;49.500;11.400;2023-03-17T05:09:22;1.10;;;1.00;;
14306;SDS011;7237;49.500;11.400;2023-03-17T05:11:49;2.13;;;1.17;;
14306;SDS011;7237;49.500;11.400;2023-03-17T05:14:17;2.17;;;1.20;;
14306;SDS011;7237;49.500;11.400;2023-03-17T05:16:45;2.10;;;1.27;;
14306;SDS011;7237;49.500;11.400;2023-03-17T05:19:12;1.63;;;1.43;;
14306;SDS011;7237;49.500;11.400;2023-03-17T05:21:39;1.67;;;1.20;;
14306;SDS011;7237;49.500;11.400;2023-03-17T05:24:06;1.33;;;1.23;;
14306;SDS011;7237;49.500;11.400;2023-03-17T05:26:34;1.63;;;1.53;;
14306;SDS011;7237;49.500;11.400;2023-03-17T05:29:01;1.40;;;1.30;;
14306;SDS011;7237;49.500;11.400;2023-03-17T05:31:29;3.10;;;1.30;;
14306;SDS011;7237;49.500;11.400;2023-03-17T05:33:56;1.83;;;1.20;;
14306;SDS011;7237;49.500;11.400;2023-03-17T05:36:23;1.33;;;1.17;;
14306;SDS011;7237;49.500;11.400;2023-03-17T05:38:51;2.93;;;1.10;;
14306;SDS011;7237;49.500;11.400;2023-03-17T05:41:18;1.87;;;1.30;;
14306;SDS011;7237;49.500;11.400;2023-03-17T05:43:45;1.07;;;1.00;;
14306;SDS011;7237;49.500;11.400;2023-03-17T05:46:12;1.20;;;1.10;;
14306;SDS011;7237;49.500;11.400;2023-03-17T05:48:41;4.00;;;1.37;;
14306;SDS011;7237;49.500;11.400;2023-03-17T05:51:08;1.53;;;1.10;;
14306;SDS011;7237;49.500;11.400;2023-03-17T05:53:35;8.27;;;1.40;;
14306;SDS011;7237;49.500;11.400;2023-03-17T05:56:02;1.30;;;1.20;;
14306;SDS011;7237;49.500;11.400;2023-03-17T05:58:30;3.37;;;1.10;;
14306;SDS011;7237;49.500;11.400;2023-03-17T06:00:57;1.60;;;1.23;;
14306;SDS011;7237;49.500;11.400;2023-03-17T06:03:24;2.60;;;1.20;;
14306;SDS011;7237;49.500;11.400;2023-03-17T06:05:52;2.20;;;1.17;;
14306;SDS011;7237;49.500;11.400;2023-03-17T06:08:19;1.80;;;1.30;;
14306;SDS011;7237;49.500;11.400;2023-03-17T06:10:47;1.20;;;1.10;;
14306;SDS011;7237;49.500;11.400;2023-03-17T06:13:14;4.77;;;1.03;;
14306;SDS011;7237;49.500;11.400;2023-03-17T06:15:41;0.90;;;0.90;;
14306;SDS011;7237;49.500;11.400;2023-03-17T06:18:08;1.17;;;1.07;;
14306;SDS011;7237;49.500;11.400;2023-03-17T06:20:35;1.30;;;1.20;;
14306;SDS011;7237;49.500;11.400;2023-03-17T06:23:03;3.23;;;1.13;;
14306;SDS011;7237;49.500;11.400;2023-03-17T06:25:31;1.20;;;1.10;;
14306;SDS011;7237;49.500;11.400;2023-03-17T06:27:58;1.43;;;1.10;;
14306;SDS011;7237;49.500;11.400;2023-03-17T06:30:27;2.00;;;1.30;;
14306;SDS011;7237;49.500;11.400;2023-03-17T06:32:55;1.03;;;0.90;;
14306;SDS011;7237;49.500;11.400;2023-03-17T06:35:22;1.17;;;1.07;;
14306;SDS011;7237;49.500;11.400;2023-03-17T06:37:50;1.43;;;1.33;;
14306;SDS011;7237;49.500;11.400;2023-03-17T06:40:19;1.20;;;1.10;;
14306;SDS011;7237;49.500;11.400;2023-03-17T06:42:46;1.97;;;1.10;;
14306;SDS011;7237;49.500;11.400;2023-03-17T06:45:13;1.30;;;1.20;;
14306;SDS011;7237;49.500;11.400;2023-03-17T06:47:41;1.60;;;1.30;;
14306;SDS011;7237;49.500;11.400;2023-03-17T06:50:09;1.27;;;1.10;;
14306;SDS011;7237;49.500;11.400;2023-03-17T06:52:36;1.33;;;1.23;;
14306;SDS011;7237;49.500;11.400;2023-03-17T06:55:04;2.63;;;1.10;;
14306;SDS011;7237;49.500;11.400;2023-03-17T06:57:33;3.20;;;1.40;;
14306;SDS011;7237;49.500;11.400;2023-03-17T07:00:00;1.40;;;1.03;;
14306;SDS011;7237;49.500;11.400;2023-03-17T07:02:29;3.87;;;1.43;;
14306;SDS011;7237;49.500;11.400;2023-03-17T07:04:56;1.77;;;1.20;;
14306;SDS011;7237;49.500;11.400;2023-03-17T07:07:23;1.50;;;1.40;;
14306;SDS011;7237;49.500;11.400;2023-03-17T07:09:51;2.73;;;0.97;;
14306;SDS011;7237;49.500;11.400;2023-03-17T07:12:18;2.23;;;1.30;;
14306;SDS011;7237;49.500;11.400;2023-03-17T07:14:47;2.60;;;1.10;;
14306;SDS011;7237;49.500;11.400;2023-03-17T07:17:14;1.47;;;1.10;;
14306;SDS011;7237;49.500;11.400;2023-03-17T07:19:42;1.70;;;1.30;;
14306;SDS011;7237;49.500;11.400;2023-03-17T07:22:10;1.33;;;1.10;;
14306;SDS011;7237;49.500;11.400;2023-03-17T07:24:37;2.03;;;1.20;;
14306;SDS011;7237;49.500;11.400;2023-03-17T07:27:05;1.20;;;1.10;;
14306;SDS011;7237;49.500;11.400;2023-03-17T07:29:33;1.60;;;1.30;;
14306;SDS011;7237;49.500;11.400;2023-03-17T07:32:01;1.30;;;1.20;;
14306;SDS011;7237;49.500;11.400;2023-03-17T07:34:31;4.90;;;1.60;;
14306;SDS011;7237;49.500;11.400;2023-03-17T07:36:58;1.23;;;1.13;;
14306;SDS011;7237;49.500;11.400;2023-03-17T07:39:25;1.60;;;1.07;;
14306;SDS011;7237;49.500;11.400;2023-03-17T07:41:52;3.23;;;1.60;;
14306;SDS011;7237;49.500;11.400;2023-03-17T07:44:20;3.03;;;1.33;;
14306;SDS011;7237;49.500;11.400;2023-03-17T07:46:47;0.90;;;0.90;;
14306;SDS011;7237;49.500;11.400;2023-03-17T07:49:16;2.57;;;1.20;;
14306;SDS011;7237;49.500;11.400;2023-03-17T07:51:43;1.10;;;0.97;;
14306;SDS011;7237;49.500;11.400;2023-03-17T07:54:11;1.30;;;1.10;;
14306;SDS011;7237;49.500;11.400;2023-03-17T07:56:38;1.30;;;1.10;;
14306;SDS011;7237;49.500;11.400;2023-03-17T07:59:05;2.07;;;1.00;;
14306;SDS011;7237;49.500;11.400;2023-03-17T08:01:33;1.10;;;1.00;;
14306;SDS011;7237;49.500;11.400;2023-03-17T08:04:00;1.57;;;1.30;;
14306;SDS011;7237;49.500;11.400;2023-03-17T08:06:28;2.20;;;1.43;;
14306;SDS011;7237;49.500;11.400;2023-03-17T08:08:56;1.40;;;1.23;;
14306;SDS011;7237;49.500;11.400;2023-03-17T08:11:23;2.43;;;1.30;;
14306;SDS011;7237;49.500;11.400;2023-03-17T08:13:50;2.93;;;1.47;;
14306;SDS011;7237;49.500;11.400;2023-03-17T08:16:17;1.43;;;1.23;;
14306;SDS011;7237;49.500;11.400;2023-03-17T08:18:44;1.90;;;1.30;;
14306;SDS011;7237;49.500;11.400;2023-03-17T08:21:12;1.30;;;1.20;;
14306;SDS011;7237;49.500;11.400;2023-03-17T08:23:40;2.13;;;1.00;;
14306;SDS011;7237;49.500;11.400;2023-03-17T08:26:07;1.53;;;1.20;;
14306;SDS011;7237;49.500;11.400;2023-03-17T08:28:34;2.73;;;1.17;;
14306;SDS011;7237;49.500;11.400;2023-03-17T08:31:05;1.20;;;1.10;;
14306;SDS011;7237;49.500;11.400;2023-03-17T08:33:33;1.53;;;1.17;;
14306;SDS011;7237;49.500;11.400;2023-03-17T08:36:02;1.83;;;1.10;;
14306;SDS011;7237;49.500;11.400;2023-03-17T08:38:30;2.97;;;1.10;;
14306;SDS011;7237;49.500;11.400;2023-03-17T08:40:59;2.97;;;1.50;;
14306;SDS011;7237;49.500;11.400;2023-03-17T08:43:26;1.20;;;1.10;;
14306;SDS011;7237;49.500;11.400;2023-03-17T08:45:58;1.03;;;1.03;;
14306;SDS011;7237;49.500;11.400;2023-03-17T08:48:26;2.43;;;1.23;;
14306;SDS011;7237;49.500;11.400;2023-03-17T08:50:54;3.23;;;1.17;;
14306;SDS011;7237;49.500;11.400;2023-03-17T08:53:21;3.00;;;1.30;;
14306;SDS011;7237;49.500;11.400;2023-03-17T08:55:49;3.83;;;1.40;;
14306;SDS011;7237;49.500;11.400;2023-03-17T08:58:17;3.50;;;1.10;;
14306;SDS011;7237;49.500;11.400;2023-03-17T09:00:44;2.37;;;1.27;;
14306;SDS011;7237;49.500;11.400;2023-03-17T09:03:12;2.47;;;1.13;;
14306;SDS011;7237;49.500;11.400;2023-03-17T09:05:39;1.67;;;1.33;;
14306;SDS011;7237;49.500;11.400;2023-03-17T09:08:08;1.67;;;1.43;;
14306;SDS011;7237;49.500;11.400;2023-03-17T09:10:36;1.40;;;1.23;;
14306;SDS011;7237;49.500;11.400;2023-03-17T09:13:03;1.07;;;1.03;;
14306;SDS011;7237;49.500;11.400;2023-03-17T09:15:32;2.20;;;1.00;;
14306;SDS011;7237;49.500;11.400;2023-03-17T09:17:59;1.47;;;1.10;;
14306;SDS011;7237;49.500;11.400;2023-03-17T09:20:27;2.83;;;1.27;;
14306;SDS011;7237;49.500;11.400;2023-03-17T09:22:54;1.70;;;1.10;;
14306;SDS011;7237;49.500;11.400;2023-03-17T09:25:21;1.70;;;0.97;;
14306;SDS011;7237;49.500;11.400;2023-03-17T09:27:49;2.20;;;1.30;;
14306;SDS011;7237;49.500;11.400;2023-03-17T09:30:16;1.60;;;1.07;;
14306;SDS011;7237;49.500;11.400;2023-03-17T09:32:45;2.77;;;1.30;;
14306;SDS011;7237;49.500;11.400;2023-03-17T09:35:12;1.33;;;1.23;;
14306;SDS011;7237;49.500;11.400;2023-03-17T09:37:39;1.53;;;1.20;;
14306;SDS011;7237;49.500;11.400;2023-03-17T09:40:07;1.30;;;1.20;;
14306;SDS011;7237;49.500;11.400;2023-03-17T09:42:36;1.90;;;0.70;;
14306;SDS011;7237;49.500;11.400;2023-03-17T09:45:11;2.00;;;1.23;;
14306;SDS011;7237;49.500;11.400;2023-03-17T09:47:50;1.83;;;1.20;;
14306;SDS011;7237;49.500;11.400;2023-03-17T09:50:21;1.17;;;1.00;;
14306;SDS011;7237;49.500;11.400;2023-03-17T09:52:49;1.87;;;1.10;;
14306;SDS011;7237;49.500;11.400;2023-03-17T09:55:21;1.50;;;1.30;;
14306;SDS011;7237;49.500;11.400;2023-03-17T09:57:48;2.37;;;0.90;;
14306;SDS011;7237;49.500;11.400;2023-03-17T10:00:17;1.17;;;1.00;;
14306;SDS011;7237;49.500;11.400;2023-03-17T10:02:47;2.07;;;0.83;;
14306;SDS011;7237;49.500;11.400;2023-03-17T10:05:18;1.13;;;0.97;;
14306;SDS011;7237;49.500;11.400;2023-03-17T10:07:46;1.30;;;1.10;;
14306;SDS011;7237;49.500;11.400;2023-03-17T10:10:18;3.87;;;1.30;;
14306;SDS011;7237;49.500;11.400;2023-03-17T10:12:48;2.70;;;1.10;;
14306;SDS011;7237;49.500;11.400;2023-03-17T10:15:21;1.13;;;1.03;;
14306;SDS011;7237;49.500;11.400;2023-03-17T10:17:49;1.30;;;1.10;;
14306;SDS011;7237;49.500;11.400;2023-03-17T10:20:20;1.97;;;1.20;;
14306;SDS011;7237;49.500;11.400;2023-03-17T10:22:50;3.30;;;1.23;;
14306;SDS011;7237;49.500;11.400;2023-03-17T10:25:19;1.57;;;1.27;;
14306;SDS011;7237;49.500;11.400;2023-03-17T10:27:47;2.80;;;1.20;;
14306;SDS011;7237;49.500;11.400;2023-03-17T10:30:18;1.77;;;1.00;;
14306;SDS011;7237;49.500;11.400;2023-03-17T10:32:46;1.03;;;0.97;;
14306;SDS011;7237;49.500;11.400;2023-03-17T10:35:14;1.80;;;1.20;;
14306;SDS011;7237;49.500;11.400;2023-03-17T10:37:44;1.67;;;1.13;;
14306;SDS011;7237;49.500;11.400;2023-03-17T10:40:19;1.47;;;1.10;;
14306;SDS011;7237;49.500;11.400;2023-03-17T10:42:47;1.20;;;0.83;;
14306;SDS011;7237;49.500;11.400;2023-03-17T10:45:15;1.50;;;0.90;;
14306;SDS011;7237;49.500;11.400;2023-03-17T10:47:45;1.30;;;1.20;;
14306;SDS011;7237;49.500;11.400;2023-03-17T10:50:17;1.23;;;0.97;;
14306;SDS011;7237;49.500;11.400;2023-03-17T10:52:47;0.90;;;0.90;;
14306;SDS011;7237;49.500;11.400;2023-03-17T10:55:18;0.90;;;0.80;;
14306;SDS011;7237;49.500;11.400;2023-03-17T10:57:48;2.20;;;1.00;;
14306;SDS011;7237;49.500;11.400;2023-03-17T11:00:16;1.10;;;0.83;;
14306;SDS011;7237;49.500;11.400;2023-03-17T11:02:45;2.50;;;1.07;;
14306;SDS011;7237;49.500;11.400;2023-03-17T11:05:17;1.30;;;1.00;;
14306;SDS011;7237;49.500;11.400;2023-03-17T11:07:44;3.37;;;0.97;;
14306;SDS011;7237;49.500;11.400;2023-03-17T11:10:16;1.83;;;1.27;;
14306;SDS011;7237;49.500;11.400;2023-03-17T11:12:43;1.17;;;1.07;;
14306;SDS011;7237;49.500;11.400;2023-03-17T11:15:14;0.80;;;0.80;;
14306;SDS011;7237;49.500;11.400;2023-03-17T11:17:46;1.40;;;0.90;;
14306;SDS011;7237;49.500;11.400;2023-03-17T11:20:19;2.40;;;0.70;;
14306;SDS011;7237;49.500;11.400;2023-03-17T11:22:51;1.93;;;0.97;;
14306;SDS011;7237;49.500;11.400;2023-03-17T11:25:21;1.17;;;0.90;;
14306;SDS011;7237;49.500;11.400;2023-03-17T11:27:50;2.85;;;0.90;;
14306;SDS011;7237;49.500;11.400;2023-03-17T11:30:22;0.93;;;0.93;;
14306;SDS011;7237;49.500;11.400;2023-03-17T11:32:52;1.10;;;0.80;;
14306;SDS011;7237;49.500;11.400;2023-03-17T11:35:31;2.15;;;1.05;;
14306;SDS011;7237;49.500;11.400;2023-03-17T11:40:45;0.80;;;0.80;;
14306;SDS011;7237;49.500;11.400;2023-03-17T11:43:18;0.60;;;0.60;;
14306;SDS011;7237;49.500;11.400;2023-03-17T11:45:48;2.28;;;1.20;;
14306;SDS011;7237;49.500;11.400;2023-03-17T11:48:21;2.97;;;0.57;;
14306;SDS011;7237;49.500;11.400;2023-03-17T11:50:53;0.82;;;0.68;;
14306;SDS011;7237;49.500;11.400;2023-03-17T11:53:43;0.65;;;0.63;;
14306;SDS011;7237;49.500;11.400;2023-03-17T11:56:17;0.60;;;0.60;;
14306;SDS011;7237;49.500;11.400;2023-03-17T11:58:46;0.60;;;0.60;;
14306;SDS011;7237;49.500;11.400;2023-03-17T12:01:16;0.50;;;0.50;;
14306;SDS011;7237;49.500;11.400;2023-03-17T12:03:45;3.40;;;0.80;;
14306;SDS011;7237;49.500;11.400;2023-03-17T12:06:14;1.15;;;0.90;;
14306;SDS011;7237;49.500;11.400;2023-03-17T12:08:44;0.65;;;0.65;;
14306;SDS011;7237;49.500;11.400;2023-03-17T12:11:13;0.90;;;0.90;;
14306;SDS011;7237;49.500;11.400;2023-03-17T12:13:44;0.85;;;0.82;;
14306;SDS011;7237;49.500;11.400;2023-03-17T12:16:13;0.68;;;0.65;;
14306;SDS011;7237;49.500;11.400;2023-03-17T12:18:41;1.08;;;0.63;;
14306;SDS011;7237;49.500;11.400;2023-03-17T12:21:14;2.20;;;0.70;;
14306;SDS011;7237;49.500;11.400;2023-03-17T12:23:44;1.00;;;0.70;;
14306;SDS011;7237;49.500;11.400;2023-03-17T12:26:13;0.57;;;0.57;;
14306;SDS011;7237;49.500;11.400;2023-03-17T12:28:43;0.63;;;0.60;;
14306;SDS011;7237;49.500;11.400;2023-03-17T12:31:14;1.00;;;0.80;;
14306;SDS011;7237;49.500;11.400;2023-03-17T12:33:45;0.70;;;0.60;;
14306;SDS011;7237;49.500;11.400;2023-03-17T12:36:15;1.02;;;0.80;;
14306;SDS011;7237;49.500;11.400;2023-03-17T12:38:42;1.00;;;0.88;;
14306;SDS011;7237;49.500;11.400;2023-03-17T12:41:27;3.42;;;0.80;;
14306;SDS011;7237;49.500;11.400;2023-03-17T12:44:03;0.88;;;0.82;;
14306;SDS011;7237;49.500;11.400;2023-03-17T12:46:36;0.95;;;0.88;;
14306;SDS011;7237;49.500;11.400;2023-03-17T12:49:11;0.68;;;0.57;;
14306;SDS011;7237;49.500;11.400;2023-03-17T12:51:48;1.88;;;0.80;;
14306;SDS011;7237;49.500;11.400;2023-03-17T12:54:20;0.93;;;0.60;;
14306;SDS011;7237;49.500;11.400;2023-03-17T12:56:51;1.90;;;0.80;;
14306;SDS011;7237;49.500;11.400;2023-03-17T12:59:19;1.95;;;0.80;;
14306;SDS011;7237;49.500;11.400;2023-03-17T13:01:53;2.10;;;1.00;;
14306;SDS011;7237;49.500;11.400;2023-03-17T13:04:23;1.52;;;0.95;;
14306;SDS011;7237;49.500;11.400;2023-03-17T13:06:56;0.63;;;0.63;;
14306;SDS011;7237;49.500;11.400;2023-03-17T13:09:27;2.30;;;0.90;;
14306;SDS011;7237;49.500;11.400;2023-03-17T13:11:54;0.73;;;0.70;;
14306;SDS011;7237;49.500;11.400;2023-03-17T13:14:25;0.88;;;0.75;;
14306;SDS011;7237;49.500;11.400;2023-03-17T13:17:03;1.25;;;0.68;;
14306;SDS011;7237;49.500;11.400;2023-03-17T13:19:31;0.93;;;0.57;;
14306;SDS011;7237;49.500;11.400;2023-03-17T13:24:45;0.60;;;0.60;;
14306;SDS011;7237;49.500;11.400;2023-03-17T13:27:13;1.02;;;0.85;;
14306;SDS011;7237;49.500;11.400;2023-03-17T13:29:45;1.13;;;1.00;;
14306;SDS011;7237;49.500;11.400;2023-03-17T13:40:32;0.52;;;0.52;;
14306;SDS011;7237;49.500;11.400;2023-03-17T13:43:04;0.63;;;0.60;;
14306;SDS011;7237;49.500;11.400;2023-03-17T13:45:35;0.70;;;0.70;;
14306;SDS011;7237;49.500;11.400;2023-03-17T13:50:44;3.40;;;0.70;;
14306;SDS011;7237;49.500;11.400;2023-03-17T13:53:11;1.00;;;0.80;;
14306;SDS011;7237;49.500;11.400;2023-03-17T13:55:41;0.98;;;0.70;;
14306;SDS011;7237;49.500;11.400;2023-03-17T13:58:23;1.13;;;0.80;;
14306;SDS011;7237;49.500;11.400;2023-03-17T14:00:55;1.20;;;0.73;;
14306;SDS011;7237;49.500;11.400;2023-03-17T14:03:26;0.57;;;0.57;;
14306;SDS011;7237;49.500;11.400;2023-03-17T14:05:56;0.68;;;0.60;;
14306;SDS011;7237;49.500;11.400;2023-03-17T14:08:26;0.40;;;0.40;;
14306;SDS011;7237;49.500;11.400;2023-03-17T14:10:56;0.75;;;0.70;;
14306;SDS011;7237;49.500;11.400;2023-03-17T14:13:25;0.40;;;0.40;;
14306;SDS011;7237;49.500;11.400;2023-03-17T14:15:53;0.65;;;0.65;;
14306;SDS011;7237;49.500;11.400;2023-03-17T14:18:25;0.90;;;0.73;;
14306;SDS011;7237;49.500;11.400;2023-03-17T14:20:56;1.98;;;0.70;;
14306;SDS011;7237;49.500;11.400;2023-03-17T14:23:23;1.70;;;1.13;;
14306;SDS011;7237;49.500;11.400;2023-03-17T14:25:52;2.35;;;0.93;;
14306;SDS011;7237;49.500;11.400;2023-03-17T14:28:23;1.48;;;0.90;;
14306;SDS011;7237;49.500;11.400;2023-03-17T14:30:51;0.57;;;0.52;;
14306;SDS011;7237;49.500;11.400;2023-03-17T14:33:20;1.35;;;0.90;;
14306;SDS011;7237;49.500;11.400;2023-03-17T14:35:49;1.80;;;1.10;;
14306;SDS011;7237;49.500;11.400;2023-03-17T14:38:16;1.02;;;0.93;;
14306;SDS011;7237;49.500;11.400;2023-03-17T14:40:44;0.90;;;0.90;;
14306;SDS011;7237;49.500;11.400;2023-03-17T14:43:11;1.23;;;0.90;;
14306;SDS011;7237;49.500;11.400;2023-03-17T14:45:47;1.60;;;1.00;;
14306;SDS011;7237;49.500;11.400;2023-03-17T14:48:15;0.90;;;0.90;;
14306;SDS011;7237;49.500;11.400;2023-03-17T14:50:48;1.23;;;0.80;;
14306;SDS011;7237;49.500;11.400;2023-03-17T14:53:15;1.83;;;1.10;;
14306;SDS011;7237;49.500;11.400;2023-03-17T14:55:43;1.02;;;1.00;;
14306;SDS011;7237;49.500;11.400;2023-03-17T14:58:16;1.83;;;0.80;;
14306;SDS011;7237;49.500;11.400;2023-03-17T15:00:45;1.13;;;0.75;;
14306;SDS011;7237;49.500;11.400;2023-03-17T15:03:18;1.00;;;0.68;;
14306;SDS011;7237;49.500;11.400;2023-03-17T15:05:46;1.33;;;0.80;;
14306;SDS011;7237;49.500;11.400;2023-03-17T15:10:56;1.23;;;0.90;;
14306;SDS011;7237;49.500;11.400;2023-03-17T15:13:24;1.90;;;0.90;;
14306;SDS011;7237;49.500;11.400;2023-03-17T15:15:53;2.88;;;0.90;;